sensor_id;sensor_type;location;lat;lon;timestamp;pressure;altitude;pressure_sealevel;temperature;humidity
57376;BME280;44805;45.048;5.062;2023-04-20T00:00:46;99239.88;;;13.81;67.78
57376;BME280;44805;45.048;5.062;2023-04-20T00:03:12;99241.59;;;13.74;67.91
57376;BME280;44805;45.048;5.062;2023-04-20T00:08:40;99238.75;;;13.60;68.52
57376;BME280;44805;45.048;5.062;2023-04-20T00:11:06;99238.56;;;13.47;67.79
57376;BME280;44805;45.048;5.062;2023-04-20T00:13:31;99235.94;;;13.62;68.86
57376;BME280;44805;45.048;5.062;2023-04-20T00:15:56;99233.94;;;13.79;66.80
57376;BME280;44805;45.048;5.062;2023-04-20T00:18:21;99225.53;;;13.60;67.63
57376;BME280;44805;45.048;5.062;2023-04-20T00:20:47;99225.81;;;13.65;68.15
57376;BME280;44805;45.048;5.062;2023-04-20T00:23:12;99221.63;;;13.56;68.61
57376;BME280;44805;45.048;5.062;2023-04-20T00:25:37;99218.19;;;13.33;69.24
57376;BME280;44805;45.048;5.062;2023-04-20T00:28:03;99214.84;;;13.39;69.03
57376;BME280;44805;45.048;5.062;2023-04-20T00:30:29;99215.50;;;13.41;69.91
57376;BME280;44805;45.048;5.062;2023-04-20T00:32:54;99210.00;;;13.42;69.31
57376;BME280;44805;45.048;5.062;2023-04-20T00:38:22;99206.38;;;13.43;69.40
57376;BME280;44805;45.048;5.062;2023-04-20T00:40:47;99203.66;;;13.66;69.57
57376;BME280;44805;45.048;5.062;2023-04-20T00:43:17;99197.00;;;13.71;69.29
57376;BME280;44805;45.048;5.062;2023-04-20T00:45:44;99203.81;;;13.50;69.43
57376;BME280;44805;45.048;5.062;2023-04-20T00:48:10;99199.97;;;13.38;69.08
57376;BME280;44805;45.048;5.062;2023-04-20T00:53:38;99193.63;;;13.24;69.47
57376;BME280;44805;45.048;5.062;2023-04-20T00:56:04;99190.56;;;13.12;69.52
57376;BME280;44805;45.048;5.062;2023-04-20T00:58:30;99189.25;;;12.93;70.83
57376;BME280;44805;45.048;5.062;2023-04-20T01:00:55;99188.91;;;12.96;71.15
57376;BME280;44805;45.048;5.062;2023-04-20T01:03:21;99180.00;;;13.12;69.69
57376;BME280;44805;45.048;5.062;2023-04-20T01:05:46;99183.53;;;13.04;70.74
57376;BME280;44805;45.048;5.062;2023-04-20T01:08:12;99180.84;;;12.90;71.35
57376;BME280;44805;45.048;5.062;2023-04-20T01:10:37;99180.91;;;12.81;71.48
57376;BME280;44805;45.048;5.062;2023-04-20T01:13:02;99170.94;;;12.69;72.52
57376;BME280;44805;45.048;5.062;2023-04-20T01:15:28;99176.13;;;12.62;73.09
57376;BME280;44805;45.048;5.062;2023-04-20T01:17:53;99166.00;;;12.66;73.11
57376;BME280;44805;45.048;5.062;2023-04-20T01:20:18;99168.19;;;12.62;73.12
57376;BME280;44805;45.048;5.062;2023-04-20T01:22:48;99157.78;;;12.60;72.88
57376;BME280;44805;45.048;5.062;2023-04-20T01:25:14;99158.84;;;12.74;72.62
57376;BME280;44805;45.048;5.062;2023-04-20T01:27:40;99158.03;;;12.74;72.37
57376;BME280;44805;45.048;5.062;2023-04-20T01:30:05;99157.66;;;12.77;72.85
57376;BME280;44805;45.048;5.062;2023-04-20T01:32:30;99156.31;;;12.58;73.37
57376;BME280;44805;45.048;5.062;2023-04-20T01:34:56;99154.16;;;12.62;72.93
57376;BME280;44805;45.048;5.062;2023-04-20T01:37:21;99160.50;;;12.75;72.86
57376;BME280;44805;45.048;5.062;2023-04-20T01:39:47;99156.91;;;12.68;72.74
57376;BME280;44805;45.048;5.062;2023-04-20T01:42:12;99155.19;;;12.29;74.11
57376;BME280;44805;45.048;5.062;2023-04-20T01:44:37;99153.16;;;12.40;74.10
57376;BME280;44805;45.048;5.062;2023-04-20T01:47:03;99151.41;;;12.55;73.36
57376;BME280;44805;45.048;5.062;2023-04-20T01:49:28;99156.31;;;12.58;73.68
57376;BME280;44805;45.048;5.062;2023-04-20T01:51:54;99159.97;;;12.57;73.93
57376;BME280;44805;45.048;5.062;2023-04-20T01:54:19;99167.00;;;12.42;74.16
57376;BME280;44805;45.048;5.062;2023-04-20T01:56:45;99152.50;;;12.37;74.30
57376;BME280;44805;45.048;5.062;2023-04-20T01:59:10;99158.91;;;12.66;73.83
57376;BME280;44805;45.048;5.062;2023-04-20T02:01:35;99151.91;;;12.73;72.41
57376;BME280;44805;45.048;5.062;2023-04-20T02:04:01;99149.13;;;12.75;72.69
57376;BME280;44805;45.048;5.062;2023-04-20T02:09:29;99152.66;;;12.67;73.13
57376;BME280;44805;45.048;5.062;2023-04-20T02:11:54;99143.84;;;12.75;72.98
57376;BME280;44805;45.048;5.062;2023-04-20T02:14:20;99149.72;;;12.62;72.70
57376;BME280;44805;45.048;5.062;2023-04-20T02:16:46;99147.66;;;12.72;72.66
57376;BME280;44805;45.048;5.062;2023-04-20T02:19:11;99141.06;;;12.68;73.08
57376;BME280;44805;45.048;5.062;2023-04-20T02:24:34;99136.78;;;12.67;73.39
57376;BME280;44805;45.048;5.062;2023-04-20T02:27:00;99142.13;;;12.59;73.60
57376;BME280;44805;45.048;5.062;2023-04-20T02:29:25;99142.53;;;12.48;73.62
57376;BME280;44805;45.048;5.062;2023-04-20T02:31:50;99138.28;;;12.38;74.37
57376;BME280;44805;45.048;5.062;2023-04-20T02:34:16;99137.00;;;12.34;75.39
57376;BME280;44805;45.048;5.062;2023-04-20T02:39:44;99131.31;;;12.46;75.21
57376;BME280;44805;45.048;5.062;2023-04-20T02:42:09;99135.03;;;12.36;75.59
57376;BME280;44805;45.048;5.062;2023-04-20T02:44:34;99129.75;;;12.36;75.10
57376;BME280;44805;45.048;5.062;2023-04-20T02:47:00;99126.69;;;12.48;75.36
57376;BME280;44805;45.048;5.062;2023-04-20T02:49:25;99128.50;;;12.47;75.50
57376;BME280;44805;45.048;5.062;2023-04-20T02:51:50;99126.34;;;12.51;74.31
57376;BME280;44805;45.048;5.062;2023-04-20T02:54:16;99127.72;;;12.62;74.23
57376;BME280;44805;45.048;5.062;2023-04-20T02:56:41;99124.75;;;12.65;73.65
57376;BME280;44805;45.048;5.062;2023-04-20T02:59:06;99129.50;;;12.69;74.65
57376;BME280;44805;45.048;5.062;2023-04-20T03:01:31;99123.16;;;12.78;75.37
57376;BME280;44805;45.048;5.062;2023-04-20T03:03:57;99109.31;;;12.76;75.26
57376;BME280;44805;45.048;5.062;2023-04-20T03:06:22;99112.00;;;12.68;76.18
57376;BME280;44805;45.048;5.062;2023-04-20T03:08:47;99091.84;;;12.52;77.21
57376;BME280;44805;45.048;5.062;2023-04-20T03:11:12;99107.19;;;12.49;77.57
57376;BME280;44805;45.048;5.062;2023-04-20T03:13:38;99109.09;;;12.40;76.73
57376;BME280;44805;45.048;5.062;2023-04-20T03:16:04;99123.31;;;12.31;77.05
57376;BME280;44805;45.048;5.062;2023-04-20T03:18:29;99118.81;;;12.16;78.25
57376;BME280;44805;45.048;5.062;2023-04-20T03:23:58;99114.69;;;12.14;78.68
57376;BME280;44805;45.048;5.062;2023-04-20T03:26:24;99112.16;;;12.21;78.08
57376;BME280;44805;45.048;5.062;2023-04-20T03:28:49;99129.88;;;11.64;81.54
57376;BME280;44805;45.048;5.062;2023-04-20T03:31:15;99133.97;;;11.11;83.63
57376;BME280;44805;45.048;5.062;2023-04-20T03:33:40;99135.25;;;11.32;83.10
57376;BME280;44805;45.048;5.062;2023-04-20T03:36:21;99145.25;;;11.44;83.07
57376;BME280;44805;45.048;5.062;2023-04-20T03:38:46;99148.34;;;11.64;82.53
57376;BME280;44805;45.048;5.062;2023-04-20T03:41:12;99149.47;;;11.70;81.28
57376;BME280;44805;45.048;5.062;2023-04-20T03:43:38;99146.38;;;11.66;81.89
57376;BME280;44805;45.048;5.062;2023-04-20T03:46:03;99144.59;;;11.50;82.72
57376;BME280;44805;45.048;5.062;2023-04-20T03:48:28;99150.16;;;11.64;82.32
57376;BME280;44805;45.048;5.062;2023-04-20T03:50:54;99150.63;;;11.76;81.54
57376;BME280;44805;45.048;5.062;2023-04-20T03:53:19;99156.53;;;11.78;81.62
57376;BME280;44805;45.048;5.062;2023-04-20T03:55:44;99150.16;;;11.64;82.42
57376;BME280;44805;45.048;5.062;2023-04-20T03:58:10;99149.59;;;11.93;80.83
57376;BME280;44805;45.048;5.062;2023-04-20T04:00:36;99154.44;;;12.12;79.97
57376;BME280;44805;45.048;5.062;2023-04-20T04:03:01;99153.38;;;12.30;79.56
57376;BME280;44805;45.048;5.062;2023-04-20T04:11:32;99148.53;;;12.42;78.23
57376;BME280;44805;45.048;5.062;2023-04-20T04:13:57;99154.03;;;12.55;79.02
57376;BME280;44805;45.048;5.062;2023-04-20T04:16:23;99155.28;;;12.67;80.07
57376;BME280;44805;45.048;5.062;2023-04-20T04:18:48;99154.22;;;12.76;79.75
57376;BME280;44805;45.048;5.062;2023-04-20T04:24:16;99154.41;;;12.75;83.30
57376;BME280;44805;45.048;5.062;2023-04-20T04:26:42;99149.63;;;12.70;84.61
57376;BME280;44805;45.048;5.062;2023-04-20T04:29:07;99143.72;;;12.68;84.01
57376;BME280;44805;45.048;5.062;2023-04-20T04:31:33;99139.16;;;12.62;85.57
57376;BME280;44805;45.048;5.062;2023-04-20T04:33:58;99142.00;;;12.75;84.46
57376;BME280;44805;45.048;5.062;2023-04-20T04:39:27;99145.41;;;12.61;84.96
57376;BME280;44805;45.048;5.062;2023-04-20T04:41:52;99145.00;;;12.72;84.33
57376;BME280;44805;45.048;5.062;2023-04-20T04:44:18;99144.88;;;12.66;85.75
57376;BME280;44805;45.048;5.062;2023-04-20T04:46:43;99154.56;;;12.73;86.05
57376;BME280;44805;45.048;5.062;2023-04-20T04:49:09;99143.41;;;12.63;86.36
57376;BME280;44805;45.048;5.062;2023-04-20T04:51:41;99142.97;;;12.59;85.70
57376;BME280;44805;45.048;5.062;2023-04-20T04:54:07;99137.13;;;12.64;86.59
57376;BME280;44805;45.048;5.062;2023-04-20T04:56:32;99144.72;;;12.67;87.18
57376;BME280;44805;45.048;5.062;2023-04-20T04:58:57;99149.63;;;12.70;85.05
57376;BME280;44805;45.048;5.062;2023-04-20T05:01:22;99148.81;;;12.70;86.40
57376;BME280;44805;45.048;5.062;2023-04-20T05:03:48;99152.06;;;12.57;87.77
57376;BME280;44805;45.048;5.062;2023-04-20T05:09:16;99160.66;;;12.74;85.49
57376;BME280;44805;45.048;5.062;2023-04-20T05:11:41;99159.91;;;12.65;86.15
57376;BME280;44805;45.048;5.062;2023-04-20T05:14:06;99161.53;;;12.66;86.22
57376;BME280;44805;45.048;5.062;2023-04-20T05:16:32;99152.75;;;12.74;87.16
57376;BME280;44805;45.048;5.062;2023-04-20T05:18:57;99155.63;;;12.64;88.01
57376;BME280;44805;45.048;5.062;2023-04-20T05:24:25;99151.56;;;12.53;90.19
57376;BME280;44805;45.048;5.062;2023-04-20T05:26:50;99133.78;;;12.24;94.61
57376;BME280;44805;45.048;5.062;2023-04-20T05:29:16;99128.38;;;11.86;97.03
57376;BME280;44805;45.048;5.062;2023-04-20T05:31:41;99134.81;;;11.67;97.30
57376;BME280;44805;45.048;5.062;2023-04-20T05:34:06;99139.22;;;11.75;96.49
57376;BME280;44805;45.048;5.062;2023-04-20T05:36:31;99138.38;;;11.83;96.87
57376;BME280;44805;45.048;5.062;2023-04-20T05:38:58;99142.38;;;11.87;98.08
57376;BME280;44805;45.048;5.062;2023-04-20T05:41:23;99122.19;;;12.02;97.52
57376;BME280;44805;45.048;5.062;2023-04-20T05:43:51;99119.38;;;12.04;97.09
57376;BME280;44805;45.048;5.062;2023-04-20T05:46:17;99119.09;;;11.90;96.87
57376;BME280;44805;45.048;5.062;2023-04-20T05:48:42;99125.03;;;11.84;96.53
57376;BME280;44805;45.048;5.062;2023-04-20T05:54:10;99122.78;;;11.73;96.92
57376;BME280;44805;45.048;5.062;2023-04-20T05:56:36;99116.47;;;11.82;95.95
57376;BME280;44805;45.048;5.062;2023-04-20T05:59:01;99112.84;;;11.83;97.32
57376;BME280;44805;45.048;5.062;2023-04-20T06:01:26;99120.09;;;11.89;95.02
57376;BME280;44805;45.048;5.062;2023-04-20T06:03:52;99122.00;;;12.04;94.05
57376;BME280;44805;45.048;5.062;2023-04-20T06:09:13;99137.19;;;11.46;98.13
57376;BME280;44805;45.048;5.062;2023-04-20T06:11:38;99135.75;;;11.19;100.00
57376;BME280;44805;45.048;5.062;2023-04-20T06:14:04;99130.78;;;11.32;100.00
57376;BME280;44805;45.048;5.062;2023-04-20T06:16:29;99120.78;;;11.75;97.90
57376;BME280;44805;45.048;5.062;2023-04-20T06:18:55;99131.81;;;12.18;96.19
57376;BME280;44805;45.048;5.062;2023-04-20T06:24:23;99137.97;;;12.42;95.30
57376;BME280;44805;45.048;5.062;2023-04-20T06:26:49;99140.00;;;12.31;97.60
57376;BME280;44805;45.048;5.062;2023-04-20T06:29:14;99138.81;;;12.03;96.92
57376;BME280;44805;45.048;5.062;2023-04-20T06:31:40;99134.34;;;12.11;95.65
57376;BME280;44805;45.048;5.062;2023-04-20T06:34:05;99134.31;;;12.43;94.14
57376;BME280;44805;45.048;5.062;2023-04-20T06:39:33;99128.38;;;12.64;91.16
57376;BME280;44805;45.048;5.062;2023-04-20T06:41:59;99119.22;;;12.74;90.20
57376;BME280;44805;45.048;5.062;2023-04-20T06:44:25;99110.34;;;12.90;91.60
57376;BME280;44805;45.048;5.062;2023-04-20T06:46:50;99121.50;;;13.00;90.04
57376;BME280;44805;45.048;5.062;2023-04-20T06:49:15;99117.03;;;13.01;88.07
57376;BME280;44805;45.048;5.062;2023-04-20T06:51:41;99118.13;;;12.46;90.81
57376;BME280;44805;45.048;5.062;2023-04-20T06:54:06;99115.00;;;12.19;94.63
57376;BME280;44805;45.048;5.062;2023-04-20T06:56:32;99109.44;;;12.14;93.77
57376;BME280;44805;45.048;5.062;2023-04-20T06:58:57;99112.94;;;12.06;95.45
57376;BME280;44805;45.048;5.062;2023-04-20T07:01:26;99112.19;;;11.89;98.07
57376;BME280;44805;45.048;5.062;2023-04-20T07:03:54;99116.28;;;11.92;99.49
57376;BME280;44805;45.048;5.062;2023-04-20T07:09:24;99115.53;;;11.67;99.70
57376;BME280;44805;45.048;5.062;2023-04-20T07:11:51;99111.06;;;11.76;100.00
57376;BME280;44805;45.048;5.062;2023-04-20T07:14:28;99113.22;;;11.72;99.02
57376;BME280;44805;45.048;5.062;2023-04-20T07:16:55;99105.34;;;11.64;99.17
57376;BME280;44805;45.048;5.062;2023-04-20T07:19:23;99097.94;;;11.59;99.67
57376;BME280;44805;45.048;5.062;2023-04-20T07:21:51;99100.44;;;11.52;100.00
57376;BME280;44805;45.048;5.062;2023-04-20T07:26:52;99088.59;;;11.88;99.16
57376;BME280;44805;45.048;5.062;2023-04-20T07:29:19;99093.88;;;11.88;99.94
57376;BME280;44805;45.048;5.062;2023-04-20T07:31:44;99091.34;;;12.03;97.15
57376;BME280;44805;45.048;5.062;2023-04-20T07:34:10;99090.66;;;12.09;97.37
57376;BME280;44805;45.048;5.062;2023-04-20T07:39:38;99088.88;;;12.01;96.26
57376;BME280;44805;45.048;5.062;2023-04-20T07:42:04;99086.00;;;12.11;96.78
57376;BME280;44805;45.048;5.062;2023-04-20T07:44:29;99078.00;;;12.50;95.68
57376;BME280;44805;45.048;5.062;2023-04-20T07:46:55;99083.16;;;12.81;94.91
57376;BME280;44805;45.048;5.062;2023-04-20T07:49:21;99088.53;;;12.73;92.62
57376;BME280;44805;45.048;5.062;2023-04-20T07:51:59;99093.59;;;12.98;92.14
57376;BME280;44805;45.048;5.062;2023-04-20T07:54:24;99090.53;;;13.24;90.98
57376;BME280;44805;45.048;5.062;2023-04-20T07:56:50;99078.09;;;13.10;88.68
57376;BME280;44805;45.048;5.062;2023-04-20T07:59:15;99090.00;;;13.58;88.96
57376;BME280;44805;45.048;5.062;2023-04-20T08:01:50;99090.47;;;13.47;87.68
57376;BME280;44805;45.048;5.062;2023-04-20T08:04:16;99096.19;;;13.80;87.14
57376;BME280;44805;45.048;5.062;2023-04-20T08:06:41;99067.31;;;13.49;84.91
57376;BME280;44805;45.048;5.062;2023-04-20T08:09:08;99097.63;;;13.83;86.22
57376;BME280;44805;45.048;5.062;2023-04-20T08:16:44;99101.72;;;13.11;85.66
57376;BME280;44805;45.048;5.062;2023-04-20T08:19:10;99096.34;;;13.04;86.61
57376;BME280;44805;45.048;5.062;2023-04-20T08:21:37;99120.03;;;12.98;86.86
57376;BME280;44805;45.048;5.062;2023-04-20T08:24:04;99111.75;;;13.16;84.36
57376;BME280;44805;45.048;5.062;2023-04-20T08:26:31;99120.66;;;13.00;84.21
57376;BME280;44805;45.048;5.062;2023-04-20T08:28:59;99123.78;;;13.03;87.14
57376;BME280;44805;45.048;5.062;2023-04-20T08:31:25;99120.56;;;13.46;83.86
57376;BME280;44805;45.048;5.062;2023-04-20T08:33:50;99120.47;;;13.69;83.53
57376;BME280;44805;45.048;5.062;2023-04-20T08:36:18;99120.84;;;13.51;82.56
57376;BME280;44805;45.048;5.062;2023-04-20T08:38:44;99108.06;;;13.70;83.31
57376;BME280;44805;45.048;5.062;2023-04-20T08:41:10;99109.78;;;13.92;81.59
57376;BME280;44805;45.048;5.062;2023-04-20T08:43:39;99096.94;;;14.10;82.91
57376;BME280;44805;45.048;5.062;2023-04-20T08:46:04;99091.72;;;14.39;77.89
57376;BME280;44805;45.048;5.062;2023-04-20T08:48:33;99086.09;;;14.63;77.25
57376;BME280;44805;45.048;5.062;2023-04-20T08:50:59;99074.63;;;14.56;78.28
57376;BME280;44805;45.048;5.062;2023-04-20T08:53:26;99075.53;;;14.70;77.88
57376;BME280;44805;45.048;5.062;2023-04-20T08:55:52;99078.16;;;14.91;77.82
57376;BME280;44805;45.048;5.062;2023-04-20T08:58:17;99079.03;;;14.98;76.76
57376;BME280;44805;45.048;5.062;2023-04-20T09:00:49;99082.19;;;15.15;75.29
57376;BME280;44805;45.048;5.062;2023-04-20T09:03:14;99082.44;;;15.20;77.75
57376;BME280;44805;45.048;5.062;2023-04-20T09:05:39;99091.13;;;15.43;75.73
57376;BME280;44805;45.048;5.062;2023-04-20T09:14:12;99113.75;;;16.28;73.40
57376;BME280;44805;45.048;5.062;2023-04-20T09:16:47;99129.09;;;16.33;72.68
57376;BME280;44805;45.048;5.062;2023-04-20T09:19:14;99130.19;;;15.97;72.81
57376;BME280;44805;45.048;5.062;2023-04-20T09:24:33;99138.41;;;15.32;71.80
57376;BME280;44805;45.048;5.062;2023-04-20T09:26:59;99139.63;;;14.80;74.92
57376;BME280;44805;45.048;5.062;2023-04-20T09:29:27;99145.19;;;14.64;77.15
57376;BME280;44805;45.048;5.062;2023-04-20T09:31:54;99155.94;;;14.04;79.04
57376;BME280;44805;45.048;5.062;2023-04-20T09:34:20;99154.00;;;13.98;80.81
57376;BME280;44805;45.048;5.062;2023-04-20T09:39:42;99152.47;;;13.30;80.38
57376;BME280;44805;45.048;5.062;2023-04-20T09:42:10;99150.69;;;12.84;80.09
57376;BME280;44805;45.048;5.062;2023-04-20T09:44:37;99158.25;;;12.87;82.25
57376;BME280;44805;45.048;5.062;2023-04-20T09:47:02;99156.84;;;12.76;85.62
57376;BME280;44805;45.048;5.062;2023-04-20T09:49:28;99161.16;;;12.77;84.99
57376;BME280;44805;45.048;5.062;2023-04-20T09:54:56;99141.78;;;13.00;84.89
57376;BME280;44805;45.048;5.062;2023-04-20T09:57:23;99143.53;;;12.93;85.18
57376;BME280;44805;45.048;5.062;2023-04-20T09:59:51;99135.72;;;13.14;84.37
57376;BME280;44805;45.048;5.062;2023-04-20T10:02:17;99133.19;;;13.21;84.87
57376;BME280;44805;45.048;5.062;2023-04-20T10:04:55;99124.94;;;13.39;85.15
57376;BME280;44805;45.048;5.062;2023-04-20T10:12:45;99110.97;;;13.45;83.81
57376;BME280;44805;45.048;5.062;2023-04-20T10:15:10;99103.22;;;13.58;83.35
57376;BME280;44805;45.048;5.062;2023-04-20T10:17:36;99101.47;;;13.80;82.63
57376;BME280;44805;45.048;5.062;2023-04-20T10:20:02;99109.25;;;14.18;79.16
57376;BME280;44805;45.048;5.062;2023-04-20T10:22:30;99116.47;;;14.46;80.64
57376;BME280;44805;45.048;5.062;2023-04-20T10:24:58;99121.94;;;15.09;79.22
57376;BME280;44805;45.048;5.062;2023-04-20T10:43:22;99115.16;;;15.34;75.59
57376;BME280;44805;45.048;5.062;2023-04-20T10:45:47;99114.47;;;15.26;75.57
57376;BME280;44805;45.048;5.062;2023-04-20T10:48:14;99118.16;;;14.96;75.91
57376;BME280;44805;45.048;5.062;2023-04-20T10:50:41;99121.56;;;15.81;73.46
57376;BME280;44805;45.048;5.062;2023-04-20T11:43:42;99087.53;;;15.57;68.51
57376;BME280;44805;45.048;5.062;2023-04-20T11:46:17;99084.69;;;15.58;69.60
57376;BME280;44805;45.048;5.062;2023-04-20T11:48:46;99076.84;;;15.44;70.15
57376;BME280;44805;45.048;5.062;2023-04-20T11:51:12;99069.44;;;15.32;69.98
57376;BME280;44805;45.048;5.062;2023-04-20T11:53:37;99072.34;;;15.44;69.54
57376;BME280;44805;45.048;5.062;2023-04-20T11:56:08;99071.75;;;15.83;69.55
57376;BME280;44805;45.048;5.062;2023-04-20T11:58:34;99078.31;;;15.88;68.10
57376;BME280;44805;45.048;5.062;2023-04-20T12:01:00;99074.44;;;15.49;68.80
57376;BME280;44805;45.048;5.062;2023-04-20T12:03:28;99077.53;;;15.52;68.20
57376;BME280;44805;45.048;5.062;2023-04-20T12:05:53;99083.72;;;15.31;69.89
57376;BME280;44805;45.048;5.062;2023-04-20T12:08:18;99090.16;;;14.87;72.57
57376;BME280;44805;45.048;5.062;2023-04-20T12:10:44;99105.00;;;15.10;72.89
57376;BME280;44805;45.048;5.062;2023-04-20T12:13:09;99107.66;;;14.82;73.01
57376;BME280;44805;45.048;5.062;2023-04-20T12:15:35;99107.97;;;14.72;73.67
57376;BME280;44805;45.048;5.062;2023-04-20T12:18:00;99116.47;;;14.89;73.76
57376;BME280;44805;45.048;5.062;2023-04-20T12:20:26;99113.19;;;14.87;72.63
57376;BME280;44805;45.048;5.062;2023-04-20T12:22:51;99120.81;;;14.96;72.33
57376;BME280;44805;45.048;5.062;2023-04-20T12:25:19;99117.94;;;15.26;69.75
57376;BME280;44805;45.048;5.062;2023-04-20T12:27:44;99115.97;;;15.35;70.19
57376;BME280;44805;45.048;5.062;2023-04-20T12:30:10;99121.25;;;15.00;71.82
57376;BME280;44805;45.048;5.062;2023-04-20T12:32:35;99130.78;;;15.23;72.81
57376;BME280;44805;45.048;5.062;2023-04-20T12:35:01;99124.34;;;15.04;73.84
57376;BME280;44805;45.048;5.062;2023-04-20T12:37:26;99125.19;;;15.11;73.44
57376;BME280;44805;45.048;5.062;2023-04-20T12:39:52;99133.50;;;15.29;74.34
57376;BME280;44805;45.048;5.062;2023-04-20T12:42:17;99127.28;;;14.66;74.69
57376;BME280;44805;45.048;5.062;2023-04-20T12:44:45;99126.16;;;15.31;72.87
57376;BME280;44805;45.048;5.062;2023-04-20T12:47:11;99111.75;;;15.12;71.81
57376;BME280;44805;45.048;5.062;2023-04-20T12:49:37;99103.91;;;15.67;69.50
57376;BME280;44805;45.048;5.062;2023-04-20T12:52:02;99111.00;;;15.88;67.91
57376;BME280;44805;45.048;5.062;2023-04-20T12:54:28;99104.94;;;16.14;67.71
57376;BME280;44805;45.048;5.062;2023-04-20T12:56:53;99113.97;;;16.26;65.84
57376;BME280;44805;45.048;5.062;2023-04-20T12:59:18;99106.63;;;16.35;65.08
57376;BME280;44805;45.048;5.062;2023-04-20T13:01:46;99105.84;;;16.55;65.36
57376;BME280;44805;45.048;5.062;2023-04-20T13:04:14;99098.84;;;16.27;65.12
57376;BME280;44805;45.048;5.062;2023-04-20T13:06:42;99109.09;;;16.50;63.64
57376;BME280;44805;45.048;5.062;2023-04-20T13:09:07;99103.63;;;16.71;61.76
57376;BME280;44805;45.048;5.062;2023-04-20T13:11:32;99108.75;;;16.80;61.35
57376;BME280;44805;45.048;5.062;2023-04-20T13:13:58;99115.88;;;16.59;63.57
57376;BME280;44805;45.048;5.062;2023-04-20T13:16:25;99108.03;;;16.24;64.41
57376;BME280;44805;45.048;5.062;2023-04-20T13:18:51;99109.28;;;16.35;64.17
57376;BME280;44805;45.048;5.062;2023-04-20T13:21:16;99099.69;;;16.41;63.95
57376;BME280;44805;45.048;5.062;2023-04-20T13:23:41;99087.44;;;16.53;62.93
57376;BME280;44805;45.048;5.062;2023-04-20T13:26:07;99090.69;;;16.42;63.15
57376;BME280;44805;45.048;5.062;2023-04-20T13:28:32;99087.41;;;16.33;63.77
57376;BME280;44805;45.048;5.062;2023-04-20T13:30:58;99088.66;;;16.44;62.79
57376;BME280;44805;45.048;5.062;2023-04-20T13:33:23;99087.03;;;16.36;62.05
57376;BME280;44805;45.048;5.062;2023-04-20T13:35:51;99082.31;;;16.32;61.70
57376;BME280;44805;45.048;5.062;2023-04-20T13:41:19;99085.03;;;16.98;60.54
57376;BME280;44805;45.048;5.062;2023-04-20T13:43:45;99073.13;;;17.21;59.28
57376;BME280;44805;45.048;5.062;2023-04-20T13:46:10;99070.66;;;17.26;59.71
57376;BME280;44805;45.048;5.062;2023-04-20T13:48:36;99057.97;;;17.28;59.90
57376;BME280;44805;45.048;5.062;2023-04-20T13:51:01;99057.59;;;17.11;59.86
57376;BME280;44805;45.048;5.062;2023-04-20T13:53:29;99057.41;;;16.99;58.64
57376;BME280;44805;45.048;5.062;2023-04-20T13:55:54;99053.13;;;17.05;57.82
57376;BME280;44805;45.048;5.062;2023-04-20T13:58:19;99050.44;;;16.91;60.24
57376;BME280;44805;45.048;5.062;2023-04-20T14:00:45;99049.22;;;17.01;58.54
57376;BME280;44805;45.048;5.062;2023-04-20T14:03:10;99047.56;;;17.13;58.30
57376;BME280;44805;45.048;5.062;2023-04-20T14:05:39;99054.47;;;17.27;59.10
57376;BME280;44805;45.048;5.062;2023-04-20T14:08:11;99044.47;;;17.23;57.98
57376;BME280;44805;45.048;5.062;2023-04-20T14:10:40;99044.47;;;17.23;57.56
57376;BME280;44805;45.048;5.062;2023-04-20T14:13:06;99044.63;;;17.41;57.97
57376;BME280;44805;45.048;5.062;2023-04-20T14:15:31;99051.50;;;17.62;57.45
57376;BME280;44805;45.048;5.062;2023-04-20T14:17:57;99043.59;;;17.42;54.16
57376;BME280;44805;45.048;5.062;2023-04-20T14:20:24;99043.59;;;17.42;55.53
57376;BME280;44805;45.048;5.062;2023-04-20T14:22:49;99047.34;;;17.73;55.00
57376;BME280;44805;45.048;5.062;2023-04-20T14:25:15;99041.47;;;17.57;54.38
57376;BME280;44805;45.048;5.062;2023-04-20T14:27:40;99038.19;;;17.69;54.75
57376;BME280;44805;45.048;5.062;2023-04-20T14:30:06;99022.78;;;17.84;54.92
57376;BME280;44805;45.048;5.062;2023-04-20T14:32:32;99035.41;;;17.50;54.21
57376;BME280;44805;45.048;5.062;2023-04-20T14:34:58;99014.84;;;17.12;57.32
57376;BME280;44805;45.048;5.062;2023-04-20T14:37:23;99011.34;;;17.12;55.74
57376;BME280;44805;45.048;5.062;2023-04-20T14:42:48;99007.28;;;16.96;57.17
57376;BME280;44805;45.048;5.062;2023-04-20T14:45:16;99003.63;;;16.90;58.51
57376;BME280;44805;45.048;5.062;2023-04-20T14:47:42;98999.94;;;16.98;58.14
57376;BME280;44805;45.048;5.062;2023-04-20T14:50:09;99021.16;;;17.11;57.67
57376;BME280;44805;45.048;5.062;2023-04-20T14:52:35;99023.06;;;16.91;57.58
57376;BME280;44805;45.048;5.062;2023-04-20T14:55:00;99024.09;;;16.90;56.28
57376;BME280;44805;45.048;5.062;2023-04-20T14:57:26;99020.34;;;17.04;55.79
57376;BME280;44805;45.048;5.062;2023-04-20T14:59:51;99011.38;;;16.99;54.85
57376;BME280;44805;45.048;5.062;2023-04-20T15:02:16;99009.34;;;17.01;54.04
57376;BME280;44805;45.048;5.062;2023-04-20T15:04:44;99011.16;;;16.74;54.63
57376;BME280;44805;45.048;5.062;2023-04-20T15:07:10;99012.56;;;17.16;54.21
57376;BME280;44805;45.048;5.062;2023-04-20T15:09:36;99012.19;;;16.99;53.21
57376;BME280;44805;45.048;5.062;2023-04-20T15:12:01;99014.22;;;17.04;54.41
57376;BME280;44805;45.048;5.062;2023-04-20T15:14:27;99016.53;;;16.87;54.93
57376;BME280;44805;45.048;5.062;2023-04-20T15:16:53;99016.66;;;17.12;55.42
57376;BME280;44805;45.048;5.062;2023-04-20T15:19:19;99015.06;;;16.98;55.55
57376;BME280;44805;45.048;5.062;2023-04-20T15:21:44;99025.50;;;16.73;55.81
57376;BME280;44805;45.048;5.062;2023-04-20T15:24:10;99022.44;;;16.49;57.26
57376;BME280;44805;45.048;5.062;2023-04-20T15:26:35;99042.88;;;16.42;57.81
57376;BME280;44805;45.048;5.062;2023-04-20T15:29:00;99033.84;;;16.23;59.62
57376;BME280;44805;45.048;5.062;2023-04-20T15:31:29;99030.59;;;16.27;60.89